createdAt,value
2023-04-02T00:00:19.292Z,101203.88
2023-04-02T00:05:33.322Z,101199.22
2023-04-02T00:10:36.981Z,101201.06
2023-04-02T00:15:42.267Z,101191.00
2023-04-02T00:20:51.613Z,101193.13
2023-04-02T00:25:54.214Z,101203.78
2023-04-02T00:30:59.942Z,101210.47
2023-04-02T00:36:08.154Z,101220.72
2023-04-02T00:41:16.863Z,101215.75
2023-04-02T00:46:30.348Z,101201.88
2023-04-02T00:51:39.082Z,101203.41
2023-04-02T00:56:48.100Z,101208.28
2023-04-02T01:02:18.780Z,101198.06
2023-04-02T01:07:37.672Z,101202.25
2023-04-02T01:13:33.874Z,101195.94
2023-04-02T01:18:54.997Z,101196.78
2023-04-02T01:23:58.023Z,101200.53
2023-04-02T01:29:14.188Z,101196.16
2023-04-02T01:34:20.369Z,101195.41
2023-04-02T01:39:44.724Z,101193.84
2023-04-02T01:44:53.441Z,101200.53
2023-04-02T01:50:03.804Z,101189.19
2023-04-02T01:55:10.495Z,101190.22
2023-04-02T02:00:19.285Z,101181.19
2023-04-02T02:05:26.555Z,101186.88
2023-04-02T02:10:37.333Z,101179.47
2023-04-02T02:15:40.018Z,101176.25
2023-04-02T02:20:43.140Z,101182.53
2023-04-02T02:25:47.990Z,101176.53
2023-04-02T02:30:57.407Z,101178.88
2023-04-02T02:36:02.730Z,101175.91
2023-04-02T02:41:31.269Z,101176.84
2023-04-02T02:46:36.270Z,101186.50
2023-04-02T02:51:52.822Z,101182.78
2023-04-02T02:57:13.617Z,101180.53
2023-04-02T03:02:17.063Z,101190.13
2023-04-02T03:07:25.826Z,101185.56
2023-04-02T03:13:02.493Z,101184.16
2023-04-02T03:18:18.329Z,101190.16
2023-04-02T03:23:29.276Z,101185.06
2023-04-02T03:28:37.672Z,101180.13
2023-04-02T03:34:08.269Z,101179.91
2023-04-02T03:39:34.135Z,101182.41
2023-04-02T03:44:46.131Z,101187.31
2023-04-02T03:50:12.516Z,101178.69
2023-04-02T03:55:24.545Z,101181.28
2023-04-02T04:00:39.830Z,101179.81
2023-04-02T04:05:54.748Z,101178.75
2023-04-02T04:11:02.283Z,101182.78
2023-04-02T04:16:15.820Z,101179.09
2023-04-02T04:21:31.322Z,101176.31
2023-04-02T04:26:55.201Z,101180.66
2023-04-02T04:32:32.632Z,101180.84
2023-04-02T04:37:45.339Z,101174.22
2023-04-02T04:42:53.410Z,101177.41
2023-04-02T04:48:21.015Z,101183.72
2023-04-02T04:53:28.005Z,101185.94
2023-04-02T04:58:36.529Z,101192.66
2023-04-02T05:03:57.477Z,101184.09
2023-04-02T05:09:13.789Z,101186.22
2023-04-02T05:14:25.088Z,101187.66
2023-04-02T05:19:38.462Z,101189.00
2023-04-02T05:24:49.247Z,101177.53
2023-04-02T05:30:01.207Z,101185.41
2023-04-02T05:35:07.090Z,101190.09
2023-04-02T05:40:19.721Z,101189.63
2023-04-02T05:45:32.324Z,101196.97
2023-04-02T05:50:43.568Z,101189.44
2023-04-02T05:56:02.937Z,101186.59
2023-04-02T06:01:17.875Z,101191.63
2023-04-02T06:06:42.051Z,101187.59
2023-04-02T06:11:57.195Z,101177.66
2023-04-02T06:17:00.184Z,101184.53
2023-04-02T06:22:37.424Z,101182.47
2023-04-02T06:27:44.270Z,101180.88
2023-04-02T06:32:48.945Z,101181.31
2023-04-02T06:37:57.659Z,101164.50
2023-04-02T06:43:14.947Z,101175.41
2023-04-02T06:48:42.636Z,101176.91
2023-04-02T06:53:48.389Z,101159.66
2023-04-02T06:58:54.720Z,101159.72
2023-04-02T07:03:58.993Z,101156.44
2023-04-02T07:22:38.239Z,101139.59
2023-04-02T07:27:41.564Z,101145.34
2023-04-02T07:32:44.925Z,101147.38
2023-04-02T07:37:47.858Z,101136.41
2023-04-02T07:42:50.999Z,101124.53
2023-04-02T07:47:54.770Z,101111.88
2023-04-02T07:52:57.662Z,101103.16
2023-04-02T07:58:00.707Z,101095.03
2023-04-02T08:03:05.052Z,101096.78
2023-04-02T08:08:08.999Z,101076.00
2023-04-02T08:13:12.185Z,101072.31
2023-04-02T08:18:15.046Z,101075.78
2023-04-02T08:23:18.274Z,101069.59
2023-04-02T08:28:22.601Z,101074.47
2023-04-02T08:33:25.165Z,101061.00
2023-04-02T08:38:28.004Z,101057.13
2023-04-02T08:44:01.093Z,101055.84
2023-04-02T08:49:12.077Z,101028.72
2023-04-02T08:54:14.599Z,101034.06
2023-04-02T08:59:32.177Z,101028.50
2023-04-02T09:04:35.317Z,101015.69
2023-04-02T09:09:38.745Z,101015.72
2023-04-02T09:14:59.529Z,101012.66
2023-04-02T09:20:22.901Z,101007.22
2023-04-02T09:25:28.403Z,101002.47
2023-04-02T09:30:52.627Z,100985.28
2023-04-02T09:35:58.165Z,100995.56
2023-04-02T09:41:07.132Z,101007.13
2023-04-02T09:46:26.446Z,100999.09
2023-04-02T09:51:34.725Z,101004.19
2023-04-02T09:56:39.942Z,101002.28
2023-04-02T10:01:59.536Z,100993.66
2023-04-02T10:07:03.738Z,100978.63
2023-04-02T10:12:14.377Z,100983.75
2023-04-02T10:17:24.838Z,100988.09
2023-04-02T10:22:28.781Z,100989.59
2023-04-02T10:27:34.913Z,100985.38
2023-04-02T10:32:47.758Z,100971.69
2023-04-02T10:38:02.902Z,100970.28
2023-04-02T10:43:47.152Z,100981.47
2023-04-02T10:49:17.742Z,100963.19
2023-04-02T10:54:30.988Z,100965.44
2023-04-02T10:59:37.621Z,100955.97
2023-04-02T11:04:46.621Z,100956.06
2023-04-02T11:09:53.935Z,100956.81
2023-04-02T11:14:56.902Z,100950.66
2023-04-02T11:20:57.712Z,100951.59
2023-04-02T11:26:38.535Z,100944.16
2023-04-02T11:31:43.168Z,100951.88
2023-04-02T11:36:52.904Z,100953.41
2023-04-02T11:42:05.852Z,100950.31
2023-04-02T11:47:30.105Z,100940.75
2023-04-02T11:52:52.116Z,100943.47
2023-04-02T11:58:29.967Z,100950.09
2023-04-02T12:04:06.344Z,100947.84
2023-04-02T12:09:25.433Z,100941.22
2023-04-02T12:14:51.279Z,100942.59
2023-04-02T12:19:57.596Z,100935.97
2023-04-02T12:25:06.909Z,100940.03
2023-04-02T12:30:21.151Z,100939.97
2023-04-02T12:35:29.161Z,100947.56
2023-04-02T12:40:32.384Z,100931.69
2023-04-02T12:45:35.272Z,100929.13
2023-04-02T12:50:41.999Z,100928.06
2023-04-02T12:55:50.254Z,100920.72
2023-04-02T13:00:53.023Z,100906.47
2023-04-02T13:05:57.652Z,100903.69
2023-04-02T13:11:05.464Z,100921.00
2023-04-02T13:16:29.284Z,100913.25
2023-04-02T13:21:32.459Z,100914.16
2023-04-02T13:26:35.092Z,100911.94
2023-04-02T13:31:40.360Z,100907.06
2023-04-02T13:36:43.003Z,100903.13
2023-04-02T13:41:52.364Z,100920.84
2023-04-02T13:46:56.687Z,100919.81
2023-04-02T13:52:05.233Z,100922.56
2023-04-02T13:57:08.664Z,100922.34
2023-04-02T14:02:21.009Z,100928.81
2023-04-02T14:07:51.942Z,100923.00
2023-04-02T14:12:59.097Z,100922.78
2023-04-02T14:18:10.801Z,100919.22
2023-04-02T14:23:44.487Z,100915.88
2023-04-02T14:29:10.663Z,100924.78
2023-04-02T14:34:27.470Z,100923.91
2023-04-02T14:39:52.296Z,100935.13
2023-04-02T14:45:05.244Z,100944.59
2023-04-02T14:50:22.040Z,100934.13
2023-04-02T14:55:36.399Z,100940.09
2023-04-02T15:00:44.311Z,100938.63
2023-04-02T15:05:56.376Z,100937.91
2023-04-02T15:11:08.269Z,100929.28
2023-04-02T15:16:21.447Z,100932.06
2023-04-02T15:21:57.569Z,100923.69
2023-04-02T15:27:39.496Z,100927.41
2023-04-02T15:32:44.364Z,100927.69
2023-04-02T15:38:17.117Z,100931.47
2023-04-02T15:43:29.999Z,100928.19
2023-04-02T15:48:58.672Z,100936.28
2023-04-02T15:54:18.523Z,100932.75
2023-04-02T16:00:12.159Z,100930.28
2023-04-02T16:05:20.159Z,100928.66
2023-04-02T16:10:40.874Z,100944.59
2023-04-02T16:15:53.825Z,100945.22
2023-04-02T16:21:03.951Z,100945.69
2023-04-02T16:26:44.014Z,100944.25
2023-04-02T16:32:31.863Z,100944.34
2023-04-02T16:37:49.817Z,100934.53
2023-04-02T16:43:06.675Z,100933.06
2023-04-02T16:48:34.633Z,100942.63
2023-04-02T16:53:39.927Z,100941.22
2023-04-02T16:59:11.399Z,100946.47
2023-04-02T17:04:26.562Z,100939.00
2023-04-02T17:09:40.636Z,100940.53
2023-04-02T17:14:58.540Z,100944.44
2023-04-02T17:20:01.986Z,100943.03
2023-04-02T17:25:07.944Z,100932.22
2023-04-02T17:30:18.075Z,100941.63
2023-04-02T17:35:30.165Z,100935.31
2023-04-02T17:40:43.549Z,100938.03
2023-04-02T17:45:52.103Z,100938.06
2023-04-02T17:51:07.944Z,100939.13
2023-04-02T17:56:24.675Z,100934.97
2023-04-02T18:01:41.012Z,100939.72
2023-04-02T18:06:51.351Z,100941.09
2023-04-02T18:11:59.794Z,100929.91
2023-04-02T18:17:27.540Z,100926.97
2023-04-02T18:22:33.109Z,100933.00
2023-04-02T18:27:47.936Z,100929.38
2023-04-02T18:33:29.978Z,100934.56
2023-04-02T18:38:49.386Z,100930.91
2023-04-02T18:44:42.940Z,100931.72
2023-04-02T18:49:57.664Z,100925.75
2023-04-02T18:55:10.594Z,100928.56
2023-04-02T19:00:34.089Z,100919.88
2023-04-02T19:05:56.104Z,100924.38
2023-04-02T19:11:06.580Z,100919.06
2023-04-02T19:16:09.374Z,100911.56
2023-04-02T19:21:44.358Z,100908.38
2023-04-02T19:26:57.360Z,100908.88
2023-04-02T19:32:12.045Z,100910.19
2023-04-02T19:37:52.725Z,100918.19
2023-04-02T19:42:56.186Z,100920.19
2023-04-02T19:48:01.673Z,100912.34
2023-04-02T19:53:04.577Z,100911.34
2023-04-02T19:58:18.677Z,100903.69
2023-04-02T20:03:22.590Z,100890.16
2023-04-02T20:08:26.284Z,100873.47
2023-04-02T20:13:29.658Z,100888.47
2023-04-02T20:18:32.653Z,100889.28
2023-04-02T20:23:36.193Z,100886.28
2023-04-02T20:28:39.217Z,100884.16
2023-04-02T20:33:42.328Z,100883.34
2023-04-02T20:38:45.931Z,100885.84
2023-04-02T20:43:50.128Z,100886.34
2023-04-02T20:48:53.180Z,100884.31
2023-04-02T20:53:56.512Z,100900.31
2023-04-02T20:58:59.340Z,100898.66
2023-04-02T21:04:04.680Z,100888.16
2023-04-02T21:09:15.166Z,100882.97
2023-04-02T21:14:18.362Z,100887.78
2023-04-02T21:19:21.178Z,100893.81
2023-04-02T21:24:24.066Z,100894.44
2023-04-02T21:29:26.956Z,100897.94
2023-04-02T21:34:29.591Z,100892.56
2023-04-02T21:39:33.956Z,100895.88
2023-04-02T21:44:36.590Z,100886.38
2023-04-02T21:49:39.053Z,100893.28
2023-04-02T21:54:41.586Z,100883.88
2023-04-02T21:59:44.217Z,100881.81
2023-04-02T22:04:46.877Z,100886.06
2023-04-02T22:09:49.810Z,100891.47
2023-04-02T22:14:52.674Z,100877.91
2023-04-02T22:19:55.852Z,100882.31
2023-04-02T22:25:00.529Z,100884.25
2023-04-02T22:30:03.497Z,100880.84
2023-04-02T22:35:06.752Z,100863.16
2023-04-02T22:40:09.968Z,100859.66
2023-04-02T22:45:13.293Z,100863.44
2023-04-02T22:50:17.469Z,100860.44
2023-04-02T22:55:20.395Z,100861.63
2023-04-02T23:00:24.371Z,100866.28
2023-04-02T23:05:27.223Z,100858.63
2023-04-02T23:10:30.825Z,100860.84
2023-04-02T23:15:34.167Z,100860.34
2023-04-02T23:20:37.527Z,100861.44
2023-04-02T23:25:41.550Z,100867.16
2023-04-02T23:30:44.983Z,100867.16
2023-04-02T23:35:48.057Z,100873.31
2023-04-02T23:40:50.655Z,100863.94
2023-04-02T23:45:53.391Z,100862.00
2023-04-02T23:50:56.457Z,100866.78
2023-04-02T23:55:59.297Z,100864.44
